Time;durP1;ratioP1;P1;durP2;ratioP2;P2;SDS_P1;SDS_P2;PMS_P1;PMS_P2;Temp;Humidity;BMP_temperature;BMP_pressure;BME280_temperature;BME280_humidity;BME280_pressure;Samples;Min_cycle;Max_cycle;Signal;HPM_P1;HPM_P2
2023/03/04 00:02:04;;;;;;;;;;;;;;;;;;5036388;28;20284;-89
2023/03/04 00:04:29;;;;;;;;;;;;;;;;;;5054324;28;19917;-87
2023/03/04 00:06:55;;;;;;;;;;;;;;;;;;5054071;28;19924;-86
2023/03/04 00:09:20;;;;;;;;;;;;;;;;;;5054191;28;19955;-87
2023/03/04 00:11:45;;;;;;;;;;;;;;;;;;5054023;28;19927;-87
2023/03/04 00:14:11;;;;;;;;;;;;;;;;;;5054048;28;20636;-86
2023/03/04 00:16:36;;;;;;;;;;;;;;;;;;5054026;28;19917;-85
2023/03/04 00:19:02;;;;;;;;;;;;;;;;;;5053975;28;20358;-87
2023/03/04 00:21:27;;;;;;;;;;;;;;;;;;5036106;28;19966;-88
2023/03/04 00:23:53;;;;;;;;;;;;;;;;;;5053970;28;20284;-88
2023/03/04 00:26:18;;;;;;;;;;;;;;;;;;5053840;28;20364;-89
2023/03/04 00:28:43;;;;;;;;;;;;;;;;;;5053841;28;19970;-87
2023/03/04 00:31:09;;;;;;;;;;;;;;;;;;5053720;28;20015;-88
2023/03/04 00:33:35;;;;;;;;;;;;;;;;;;5053840;28;19921;-88
2023/03/04 00:36:02;;;;;;;;;;;;;;;;;;5053748;28;20008;-87
2023/03/04 00:38:28;;;;;;;;;;;;;;;;;;5053571;28;19924;-88
2023/03/04 00:40:53;;;;;;;;;;;;;;;;;;5035905;28;19921;-88
2023/03/04 00:43:19;;;;;;;;;;;;;;;;;;5053553;28;20331;-88
2023/03/04 00:45:44;;;;;;;;;;;;;;;;;;5053475;28;20394;-88
2023/03/04 00:48:10;;;;;;;;;;;;;;;;;;5035409;28;20334;-88
2023/03/04 00:50:36;;;;;;;;;;;;;;;;;;5053490;28;19995;-87
2023/03/04 00:53:01;;;;;;;;;;;;;;;;;;5035582;28;19966;-87
2023/03/04 00:55:27;;;;;;;;;;;;;;;;;;5035524;28;20346;-86
2023/03/04 00:57:52;;;;;;;;;;;;;;;;;;5035448;28;20391;-88
2023/03/04 01:00:18;;;;;;;;;;;;;;;;;;5053654;28;19919;-86
2023/03/04 01:02:43;;;;;;;;;;;;;;;;;;5053264;28;19924;-87
2023/03/04 01:05:09;;;;;;;;;;;;;;;;;;5053395;28;19917;-86
2023/03/04 01:07:35;;;;;;;;;;;;;;;;;;5035872;28;19953;-87
2023/03/04 01:10:00;;;;;;;;;;;;;;;;;;5053817;28;20447;-87
2023/03/04 01:12:27;;;;;;;;;;;;;;;;;;5036141;28;19931;-88
2023/03/04 01:14:52;;;;;;;;;;;;;;;;;;5061588;28;20000;-88
2023/03/04 01:17:17;;;;;;;;;;;;;;;;;;5067434;28;19921;-87
2023/03/04 01:19:43;;;;;;;;;;;;;;;;;;5073852;28;19900;-85
2023/03/04 01:22:09;;;;;;;;;;;;;;;;;;5077991;28;19905;-88
2023/03/04 01:24:35;;;;;;;;;;;;;;;;;;5060728;28;19905;-87
2023/03/04 01:27:01;;;;;;;;;;;;;;;;;;5074596;28;19921;-84
2023/03/04 01:29:26;;;;;;;;;;;;;;;;;;5041561;28;19994;-84
2023/03/04 01:31:51;;;;;;;;;;;;;;;;;;5035988;28;20408;-85
2023/03/04 01:34:17;;;;;;;;;;;;;;;;;;5053628;28;19921;-88
2023/03/04 01:36:42;;;;;;;;;;;;;;;;;;5053265;28;19924;-88
2023/03/04 01:39:08;;;;;;;;;;;;;;;;;;5052994;28;19924;-85
2023/03/04 01:41:33;;;;;;;;;;;;;;;;;;5053219;28;20340;-87
2023/03/04 01:44:02;;;;;;;;;;;;;;;;;;5052857;28;19976;-86
2023/03/04 01:46:28;;;;;;;;;;;;;;;;;;5037807;28;19924;-85
2023/03/04 01:48:53;;;;;;;;;;;;;;;;;;5039753;28;19921;-87
2023/03/04 01:51:19;;;;;;;;;;;;;;;;;;5056906;28;19917;-89
2023/03/04 01:53:45;;;;;;;;;;;;;;;;;;5039018;28;19916;-86
2023/03/04 01:56:14;;;;;;;;;;;;;;;;;;5056687;28;19924;-85
2023/03/04 01:58:40;;;;;;;;;;;;;;;;;;5038834;28;19917;-86
2023/03/04 02:01:05;;;;;;;;;;;;;;;;;;5056661;28;19928;-88
2023/03/04 02:03:30;;;;;;;;;;;;;;;;;;5056487;28;20376;-87
2023/03/04 02:05:56;;;;;;;;;;;;;;;;;;5056365;28;19927;-87
2023/03/04 02:08:23;;;;;;;;;;;;;;;;;;5056556;28;20380;-85
2023/03/04 02:10:49;;;;;;;;;;;;;;;;;;5038594;28;20388;-87
2023/03/04 02:13:15;;;;;;;;;;;;;;;;;;5056540;28;19927;-85
2023/03/04 02:15:41;;;;;;;;;;;;;;;;;;5056428;28;19920;-87
2023/03/04 02:18:13;;;;;;;;;;;;;;;;;;5056361;28;19921;-88
2023/03/04 02:20:44;;;;;;;;;;;;;;;;;;5038348;28;19916;-87
2023/03/04 02:23:12;;;;;;;;;;;;;;;;;;5056134;28;19917;-87
2023/03/04 02:25:47;;;;;;;;;;;;;;;;;;5056117;28;19917;-88
2023/03/04 02:28:12;;;;;;;;;;;;;;;;;;5038102;28;20386;-87
2023/03/04 02:30:38;;;;;;;;;;;;;;;;;;5056200;28;20008;-87
2023/03/04 02:33:03;;;;;;;;;;;;;;;;;;5056045;28;19970;-87
2023/03/04 02:35:29;;;;;;;;;;;;;;;;;;5056218;28;19963;-86
2023/03/04 02:37:54;;;;;;;;;;;;;;;;;;5038125;28;20071;-86
2023/03/04 02:40:30;;;;;;;;;;;;;;;;;;5055924;28;19917;-87
2023/03/04 02:42:57;;;;;;;;;;;;;;;;;;5055980;28;19970;-87
2023/03/04 02:45:43;;;;;;;;;;;;;;;;;;5056415;28;20070;-87
2023/03/04 02:48:09;;;;;;;;;;;;;;;;;;5055550;28;19967;-88
2023/03/04 02:50:46;;;;;;;;;;;;;;;;;;5056022;28;20340;-84
2023/03/04 02:53:11;;;;;;;;;;;;;;;;;;5055643;28;19917;-85
2023/03/04 02:55:37;;;;;;;;;;;;;;;;;;5055589;28;19936;-87
2023/03/04 02:58:02;;;;;;;;;;;;;;;;;;5036584;28;20300;-85
2023/03/04 03:00:28;;;;;;;;;;;;;;;;;;5055493;28;19917;-87
2023/03/04 03:02:55;;;;;;;;;;;;;;;;;;5037712;28;20380;-88
2023/03/04 03:05:21;;;;;;;;;;;;;;;;;;5037663;28;19917;-87
2023/03/04 03:07:47;;;;;;;;;;;;;;;;;;5055508;28;19964;-87
2023/03/04 03:10:12;;;;;;;;;;;;;;;;;;5055402;28;20014;-85
2023/03/04 03:12:38;;;;;;;;;;;;;;;;;;5055337;28;20020;-86
2023/03/04 03:15:03;;;;;;;;;;;;;;;;;;5055380;28;20408;-86
2023/03/04 03:17:29;;;;;;;;;;;;;;;;;;5055233;28;20008;-87
2023/03/04 03:19:54;;;;;;;;;;;;;;;;;;5037388;28;19923;-85
2023/03/04 03:22:19;;;;;;;;;;;;;;;;;;5020790;28;19995;-87
2023/03/04 03:24:45;;;;;;;;;;;;;;;;;;5055045;28;20364;-88
2023/03/04 03:27:10;;;;;;;;;;;;;;;;;;5055040;28;19917;-88
2023/03/04 03:29:36;;;;;;;;;;;;;;;;;;5037147;28;19939;-87
2023/03/04 03:32:01;;;;;;;;;;;;;;;;;;5054858;28;19917;-87
2023/03/04 03:34:26;;;;;;;;;;;;;;;;;;5037097;28;19916;-87
2023/03/04 03:36:52;;;;;;;;;;;;;;;;;;5054895;28;20007;-87
2023/03/04 03:39:17;;;;;;;;;;;;;;;;;;5036959;28;19962;-86
2023/03/04 03:41:43;;;;;;;;;;;;;;;;;;5054714;28;19920;-87
2023/03/04 03:44:08;;;;;;;;;;;;;;;;;;5036639;28;19924;-86
2023/03/04 03:46:34;;;;;;;;;;;;;;;;;;5054516;28;19917;-87
2023/03/04 03:48:59;;;;;;;;;;;;;;;;;;5054623;28;20291;-86
2023/03/04 03:51:25;;;;;;;;;;;;;;;;;;5054482;28;19917;-85
2023/03/04 03:53:50;;;;;;;;;;;;;;;;;;5054459;28;20447;-85
2023/03/04 03:56:16;;;;;;;;;;;;;;;;;;5054532;28;20012;-87
2023/03/04 03:58:41;;;;;;;;;;;;;;;;;;5036513;28;19921;-86
2023/03/04 04:01:08;;;;;;;;;;;;;;;;;;5054632;28;19924;-87
2023/03/04 04:03:33;;;;;;;;;;;;;;;;;;5036369;28;19916;-87
2023/03/04 04:05:58;;;;;;;;;;;;;;;;;;5054218;28;20282;-86
2023/03/04 04:08:24;;;;;;;;;;;;;;;;;;5054010;28;20335;-87
2023/03/04 04:10:49;;;;;;;;;;;;;;;;;;5036262;28;19923;-87
2023/03/04 04:13:15;;;;;;;;;;;;;;;;;;5054153;28;19917;-86
2023/03/04 04:15:40;;;;;;;;;;;;;;;;;;5054119;28;19917;-86
2023/03/04 04:18:06;;;;;;;;;;;;;;;;;;5054073;28;20011;-88
2023/03/04 04:20:31;;;;;;;;;;;;;;;;;;5036196;28;19963;-87
2023/03/04 04:22:57;;;;;;;;;;;;;;;;;;5036108;28;19921;-87
2023/03/04 04:25:22;;;;;;;;;;;;;;;;;;5053746;28;20371;-87
2023/03/04 04:27:48;;;;;;;;;;;;;;;;;;5035958;28;20367;-86
2023/03/04 04:30:13;;;;;;;;;;;;;;;;;;5053741;28;20371;-86
2023/03/04 04:32:39;;;;;;;;;;;;;;;;;;5053803;28;19928;-88
2023/03/04 04:35:04;;;;;;;;;;;;;;;;;;5019482;28;20008;-89
2023/03/04 04:37:30;;;;;;;;;;;;;;;;;;5053608;28;20330;-87
2023/03/04 04:39:56;;;;;;;;;;;;;;;;;;5053693;28;19917;-87
2023/03/04 04:42:22;;;;;;;;;;;;;;;;;;5053643;28;20287;-87
2023/03/04 04:44:47;;;;;;;;;;;;;;;;;;5053603;28;19917;-87
2023/03/04 04:47:12;;;;;;;;;;;;;;;;;;5035455;28;19921;-88
2023/03/04 04:49:38;;;;;;;;;;;;;;;;;;5053621;28;19917;-88
2023/03/04 04:52:03;;;;;;;;;;;;;;;;;;5053647;28;19917;-88
2023/03/04 04:54:29;;;;;;;;;;;;;;;;;;5053397;28;19990;-87
2023/03/04 04:56:54;;;;;;;;;;;;;;;;;;5053437;28;19917;-88
2023/03/04 04:59:20;;;;;;;;;;;;;;;;;;5053210;28;19921;-87
2023/03/04 05:01:45;;;;;;;;;;;;;;;;;;5053361;28;19921;-88
2023/03/04 05:04:10;;;;;;;;;;;;;;;;;;5053297;28;20365;-87
2023/03/04 05:06:36;;;;;;;;;;;;;;;;;;5053237;28;19947;-86
2023/03/04 05:09:01;;;;;;;;;;;;;;;;;;5053206;28;19975;-87
2023/03/04 05:11:27;;;;;;;;;;;;;;;;;;5053228;28;20007;-88
2023/03/04 05:13:52;;;;;;;;;;;;;;;;;;5051900;28;19979;-87
2023/03/04 05:16:18;;;;;;;;;;;;;;;;;;5053136;28;20000;-87
2023/03/04 05:18:44;;;;;;;;;;;;;;;;;;5035243;28;20326;-86
2023/03/04 05:21:09;;;;;;;;;;;;;;;;;;5034475;28;20420;-87
2023/03/04 05:23:37;;;;;;;;;;;;;;;;;;5053233;28;19964;-87
2023/03/04 05:26:03;;;;;;;;;;;;;;;;;;5052957;28;20384;-87
2023/03/04 05:28:28;;;;;;;;;;;;;;;;;;5053137;28;19921;-87
2023/03/04 05:30:54;;;;;;;;;;;;;;;;;;5053104;28;19913;-87
2023/03/04 05:33:19;;;;;;;;;;;;;;;;;;5053631;28;20399;-87
2023/03/04 05:35:47;;;;;;;;;;;;;;;;;;5053717;28;19928;-86
2023/03/04 05:38:13;;;;;;;;;;;;;;;;;;5053752;28;19917;-86
2023/03/04 05:40:39;;;;;;;;;;;;;;;;;;5055022;28;19921;-87
2023/03/04 05:43:05;;;;;;;;;;;;;;;;;;5071576;28;19916;-88
2023/03/04 05:45:30;;;;;;;;;;;;;;;;;;5073491;28;19928;-87
2023/03/04 05:47:56;;;;;;;;;;;;;;;;;;5076308;28;19929;-88
2023/03/04 05:50:21;;;;;;;;;;;;;;;;;;5077095;28;19944;-86
2023/03/04 05:52:47;;;;;;;;;;;;;;;;;;5057745;28;19989;-84
2023/03/04 05:55:13;;;;;;;;;;;;;;;;;;5039662;28;19916;-84
2023/03/04 05:57:38;;;;;;;;;;;;;;;;;;5055895;28;19924;-84
2023/03/04 06:00:04;;;;;;;;;;;;;;;;;;5053756;28;19924;-86
2023/03/04 06:02:30;;;;;;;;;;;;;;;;;;5052991;28;20135;-85
2023/03/04 06:04:55;;;;;;;;;;;;;;;;;;5052963;28;20416;-87
2023/03/04 06:07:21;;;;;;;;;;;;;;;;;;5052966;28;19924;-83
2023/03/04 06:09:46;;;;;;;;;;;;;;;;;;5052760;28;19921;-84
2023/03/04 06:12:11;;;;;;;;;;;;;;;;;;5052886;28;19924;-87
2023/03/04 06:14:37;;;;;;;;;;;;;;;;;;5034951;28;19921;-85
2023/03/04 06:17:02;;;;;;;;;;;;;;;;;;5036718;28;19920;-86
2023/03/04 06:19:28;;;;;;;;;;;;;;;;;;5053911;28;19923;-85
2023/03/04 06:21:53;;;;;;;;;;;;;;;;;;5052726;28;20403;-84
2023/03/04 06:24:19;;;;;;;;;;;;;;;;;;5052557;28;19923;-87
2023/03/04 06:26:44;;;;;;;;;;;;;;;;;;5052501;28;19917;-86
2023/03/04 06:29:10;;;;;;;;;;;;;;;;;;5052707;28;19917;-86
2023/03/04 06:31:35;;;;;;;;;;;;;;;;;;5054230;28;19964;-85
2023/03/04 06:34:01;;;;;;;;;;;;;;;;;;5056032;28;20478;-86
2023/03/04 06:36:26;;;;;;;;;;;;;;;;;;5056127;28;19921;-87
2023/03/04 06:38:52;;;;;;;;;;;;;;;;;;5038387;28;20284;-86
2023/03/04 06:41:17;;;;;;;;;;;;;;;;;;5056151;28;19928;-85
2023/03/04 06:43:43;;;;;;;;;;;;;;;;;;5055949;28;19928;-86
2023/03/04 06:46:08;;;;;;;;;;;;;;;;;;5037992;28;19920;-86
2023/03/04 06:48:34;;;;;;;;;;;;;;;;;;5055836;28;19920;-85
2023/03/04 06:51:06;;;;;;;;;;;;;;;;;;5055879;28;19917;-87
2023/03/04 06:53:31;;;;;;;;;;;;;;;;;;5055788;28;19928;-85
2023/03/04 06:55:57;;;;;;;;;;;;;;;;;;5055724;28;19917;-86
2023/03/04 06:58:22;;;;;;;;;;;;;;;;;;5055556;28;19924;-85
2023/03/04 07:00:47;;;;;;;;;;;;;;;;;;5055780;28;20368;-86
2023/03/04 07:03:13;;;;;;;;;;;;;;;;;;5055635;28;19917;-84
2023/03/04 07:05:39;;;;;;;;;;;;;;;;;;5056067;28;19921;-86
2023/03/04 07:08:05;;;;;;;;;;;;;;;;;;5055695;28;19928;-86
2023/03/04 07:10:31;;;;;;;;;;;;;;;;;;5056036;28;19913;-85
2023/03/04 07:12:56;;;;;;;;;;;;;;;;;;5055477;28;19990;-87
2023/03/04 07:15:22;;;;;;;;;;;;;;;;;;5037965;28;19978;-87
2023/03/04 07:17:47;;;;;;;;;;;;;;;;;;5037979;28;19917;-86
2023/03/04 07:20:13;;;;;;;;;;;;;;;;;;5055535;28;19924;-86
2023/03/04 07:22:38;;;;;;;;;;;;;;;;;;5055641;28;19913;-85
2023/03/04 07:25:04;;;;;;;;;;;;;;;;;;5055226;28;20291;-87
2023/03/04 07:27:29;;;;;;;;;;;;;;;;;;5055509;28;20291;-87
2023/03/04 07:29:55;;;;;;;;;;;;;;;;;;5055730;28;19921;-84
2023/03/04 07:32:20;;;;;;;;;;;;;;;;;;5037389;28;19924;-85
2023/03/04 07:34:45;;;;;;;;;;;;;;;;;;5054981;28;19939;-84
2023/03/04 07:37:11;;;;;;;;;;;;;;;;;;5054962;28;20011;-86
2023/03/04 07:39:36;;;;;;;;;;;;;;;;;;5036840;28;19928;-85
2023/03/04 07:42:02;;;;;;;;;;;;;;;;;;5054789;28;19925;-85
2023/03/04 07:44:27;;;;;;;;;;;;;;;;;;5057431;28;19917;-83
2023/03/04 07:46:53;;;;;;;;;;;;;;;;;;5058351;28;19960;-85
2023/03/04 07:49:18;;;;;;;;;;;;;;;;;;5055379;28;19917;-86
2023/03/04 07:51:43;;;;;;;;;;;;;;;;;;5055265;28;20010;-85
2023/03/04 07:54:09;;;;;;;;;;;;;;;;;;5055515;28;19921;-86
2023/03/04 07:56:34;;;;;;;;;;;;;;;;;;5055017;28;19916;-86
2023/03/04 07:59:02;;;;;;;;;;;;;;;;;;5055559;28;21827;-86
2023/03/04 08:01:31;;;;;;;;;;;;;;;;;;5055949;28;19921;-87
2023/03/04 08:03:57;;;;;;;;;;;;;;;;;;5037152;28;19921;-87
2023/03/04 08:06:24;;;;;;;;;;;;;;;;;;5036339;28;19968;-86
2023/03/04 08:08:54;;;;;;;;;;;;;;;;;;5054418;28;19917;-85
2023/03/04 08:11:20;;;;;;;;;;;;;;;;;;5054161;28;19916;-85
2023/03/04 08:13:46;;;;;;;;;;;;;;;;;;5054042;28;19916;-86
2023/03/04 08:16:14;;;;;;;;;;;;;;;;;;5035567;28;19917;-86
2023/03/04 08:18:40;;;;;;;;;;;;;;;;;;5044529;28;20016;-86
2023/03/04 08:21:10;;;;;;;;;;;;;;;;;;5031617;28;19925;-87
2023/03/04 08:23:35;;;;;;;;;;;;;;;;;;5040238;28;19971;-87
2023/03/04 08:26:04;;;;;;;;;;;;;;;;;;5040248;28;19972;-87
2023/03/04 08:28:30;;;;;;;;;;;;;;;;;;5048140;28;19932;-89
2023/03/04 08:30:55;;;;;;;;;;;;;;;;;;5028110;28;19925;-89
2023/03/04 08:33:21;;;;;;;;;;;;;;;;;;5041051;28;19921;-86
2023/03/04 08:35:46;;;;;;;;;;;;;;;;;;5034355;28;20315;-88
2023/03/04 08:38:12;;;;;;;;;;;;;;;;;;5039376;28;19966;-86
2023/03/04 08:40:40;;;;;;;;;;;;;;;;;;5047589;28;19928;-86
2023/03/04 08:43:05;;;;;;;;;;;;;;;;;;5035772;28;19928;-87
2023/03/04 08:45:31;;;;;;;;;;;;;;;;;;5053529;28;19921;-88
2023/03/04 08:47:56;;;;;;;;;;;;;;;;;;5053524;28;19940;-87
2023/03/04 08:50:22;;;;;;;;;;;;;;;;;;5053713;28;20035;-86
2023/03/04 08:52:47;;;;;;;;;;;;;;;;;;5053646;28;19921;-86
2023/03/04 08:55:12;;;;;;;;;;;;;;;;;;5052518;28;19926;-87
2023/03/04 08:57:38;;;;;;;;;;;;;;;;;;5053222;28;20007;-88
2023/03/04 09:00:04;;;;;;;;;;;;;;;;;;5052036;28;20426;-88
2023/03/04 09:02:29;;;;;;;;;;;;;;;;;;5052856;28;19917;-88
2023/03/04 09:04:54;;;;;;;;;;;;;;;;;;5053020;28;20008;-88
2023/03/04 09:07:20;;;;;;;;;;;;;;;;;;5053032;28;20364;-87
2023/03/04 09:09:45;;;;;;;;;;;;;;;;;;5035743;28;20431;-89
2023/03/04 09:12:11;;;;;;;;;;;;;;;;;;5053408;28;19917;-86
2023/03/04 09:14:36;;;;;;;;;;;;;;;;;;5053291;28;19921;-86
2023/03/04 09:17:04;;;;;;;;;;;;;;;;;;5035459;28;20292;-85
2023/03/04 09:19:30;;;;;;;;;;;;;;;;;;5052725;28;20292;-87
2023/03/04 09:21:58;;;;;;;;;;;;;;;;;;5053131;28;19917;-87
2023/03/04 09:24:23;;;;;;;;;;;;;;;;;;5052659;28;19940;-87
2023/03/04 09:26:50;;;;;;;;;;;;;;;;;;5052823;28;19921;-85
2023/03/04 09:29:15;;;;;;;;;;;;;;;;;;5052764;28;19916;-85
2023/03/04 09:31:41;;;;;;;;;;;;;;;;;;5052913;28;20387;-85
2023/03/04 09:34:06;;;;;;;;;;;;;;;;;;5033823;28;20009;-87
2023/03/04 09:36:32;;;;;;;;;;;;;;;;;;5034493;28;20011;-85
2023/03/04 09:39:01;;;;;;;;;;;;;;;;;;5034769;28;20007;-87
2023/03/04 09:41:39;;;;;;;;;;;;;;;;;;5034325;28;19921;-83
2023/03/04 09:44:09;;;;;;;;;;;;;;;;;;5052754;28;19924;-85
2023/03/04 09:46:37;;;;;;;;;;;;;;;;;;5033890;28;19938;-86
2023/03/04 09:49:03;;;;;;;;;;;;;;;;;;5052931;28;19920;-85
2023/03/04 09:51:34;;;;;;;;;;;;;;;;;;5053159;28;20016;-85
2023/03/04 09:54:00;;;;;;;;;;;;;;;;;;5035248;28;20292;-87
2023/03/04 09:56:26;;;;;;;;;;;;;;;;;;5052433;28;19921;-86
2023/03/04 09:58:51;;;;;;;;;;;;;;;;;;5052487;28;20007;-86
2023/03/04 10:01:43;;;;;;;;;;;;;;;;;;5052480;28;20326;-88
2023/03/04 10:04:14;;;;;;;;;;;;;;;;;;5031706;28;19923;-87
2023/03/04 10:06:41;;;;;;;;;;;;;;;;;;5036276;28;19917;-88
2023/03/04 10:09:12;;;;;;;;;;;;;;;;;;5055549;28;19921;-87
2023/03/04 10:12:09;;;;;;;;;;;;;;;;;;5056609;28;19944;-88
2023/03/04 10:14:50;;;;;;;;;;;;;;;;;;5011719;28;19923;-88
2023/03/04 10:17:15;;;;;;;;;;;;;;;;;;5056629;28;19988;-88
2023/03/04 10:20:16;;;;;;;;;;;;;;;;;;5056188;28;19921;-88
2023/03/04 10:22:48;;;;;;;;;;;;;;;;;;4975068;28;19918;-88
2023/03/04 10:25:26;;;;;;;;;;;;;;;;;;4975309;28;19918;-87
2023/03/04 10:28:05;;;;;;;;;;;;;;;;;;4975224;28;19918;-88
2023/03/04 10:30:39;;;;;;;;;;;;;;;;;;4975315;28;19974;-87
2023/03/04 10:33:14;;;;;;;;;;;;;;;;;;4975572;28;19950;-89
2023/03/04 10:35:41;;;;;;;;;;;;;;;;;;4975335;28;19919;-87
2023/03/04 10:38:08;;;;;;;;;;;;;;;;;;4975149;28;19919;-88
2023/03/04 10:40:37;;;;;;;;;;;;;;;;;;4975398;28;19922;-88
2023/03/04 10:43:06;;;;;;;;;;;;;;;;;;4958825;28;19919;-89
2023/03/04 10:45:36;;;;;;;;;;;;;;;;;;4974981;28;20386;-88
2023/03/04 10:48:02;;;;;;;;;;;;;;;;;;4958621;28;19930;-87
2023/03/04 10:50:27;;;;;;;;;;;;;;;;;;4974945;28;19926;-88
2023/03/04 10:52:54;;;;;;;;;;;;;;;;;;4974731;28;19964;-88
2023/03/04 10:55:40;;;;;;;;;;;;;;;;;;4974834;28;19922;-88
2023/03/04 10:58:05;;;;;;;;;;;;;;;;;;5056285;28;19916;-89
2023/03/04 11:00:31;;;;;;;;;;;;;;;;;;5056575;28;19920;-89
2023/03/04 11:03:15;;;;;;;;;;;;;;;;;;5055896;28;20001;-88
2023/03/04 11:05:40;;;;;;;;;;;;;;;;;;5055938;28;19927;-87
2023/03/04 11:08:15;;;;;;;;;;;;;;;;;;5073702;28;19928;-86
2023/03/04 11:10:41;;;;;;;;;;;;;;;;;;5063080;28;19916;-87
2023/03/04 11:13:12;;;;;;;;;;;;;;;;;;5061296;28;19952;-86
2023/03/04 11:16:04;;;;;;;;;;;;;;;;;;5055499;28;19921;-86
2023/03/04 11:18:43;;;;;;;;;;;;;;;;;;5050152;28;19923;-87
2023/03/04 11:21:22;;;;;;;;;;;;;;;;;;5055308;28;20007;-86
2023/03/04 11:23:47;;;;;;;;;;;;;;;;;;5055306;28;19950;-86
2023/03/04 11:26:39;;;;;;;;;;;;;;;;;;5055250;28;20332;-86
2023/03/04 11:29:05;;;;;;;;;;;;;;;;;;5051139;28;20022;-90
2023/03/04 11:31:45;;;;;;;;;;;;;;;;;;5037520;28;19917;-85
2023/03/04 11:34:18;;;;;;;;;;;;;;;;;;5055197;28;20347;-86
2023/03/04 11:36:56;;;;;;;;;;;;;;;;;;5054988;28;19917;-87
2023/03/04 11:39:34;;;;;;;;;;;;;;;;;;5054938;28;19916;-88
2023/03/04 11:42:12;;;;;;;;;;;;;;;;;;5037018;28;19916;-85
2023/03/04 11:44:38;;;;;;;;;;;;;;;;;;5054825;28;20451;-87
2023/03/04 11:47:26;;;;;;;;;;;;;;;;;;5036643;28;19967;-86
2023/03/04 11:49:52;;;;;;;;;;;;;;;;;;5054823;28;19917;-86
2023/03/04 11:52:37;;;;;;;;;;;;;;;;;;5036677;28;19963;-86
2023/03/04 11:55:21;;;;;;;;;;;;;;;;;;5006369;28;20370;-87
2023/03/04 11:57:46;;;;;;;;;;;;;;;;;;5036910;28;19920;-87
2023/03/04 12:00:17;;;;;;;;;;;;;;;;;;5054631;28;19917;-85
2023/03/04 12:02:46;;;;;;;;;;;;;;;;;;5054536;28;20025;-86
2023/03/04 12:05:25;;;;;;;;;;;;;;;;;;5054461;28;20414;-88
2023/03/04 12:07:59;;;;;;;;;;;;;;;;;;5053778;28;20376;-87
2023/03/04 12:10:35;;;;;;;;;;;;;;;;;;5054019;28;19921;-88
2023/03/04 12:13:10;;;;;;;;;;;;;;;;;;5052963;28;19921;-88
2023/03/04 12:15:47;;;;;;;;;;;;;;;;;;5054345;28;19968;-86
2023/03/04 12:18:20;;;;;;;;;;;;;;;;;;5053970;28;20295;-88
2023/03/04 12:20:55;;;;;;;;;;;;;;;;;;5071263;28;19916;-87
2023/03/04 12:23:26;;;;;;;;;;;;;;;;;;5074126;28;19921;-88
2023/03/04 12:25:52;;;;;;;;;;;;;;;;;;5074127;28;19917;-87
2023/03/04 12:28:36;;;;;;;;;;;;;;;;;;5055369;28;20020;-88
2023/03/04 12:31:01;;;;;;;;;;;;;;;;;;5072438;28;20391;-87
2023/03/04 12:33:38;;;;;;;;;;;;;;;;;;5053433;28;19956;-88
2023/03/04 12:36:14;;;;;;;;;;;;;;;;;;5034785;28;19967;-87
2023/03/04 12:38:49;;;;;;;;;;;;;;;;;;5035463;28;20015;-88
2023/03/04 12:41:14;;;;;;;;;;;;;;;;;;5035837;28;19960;-88
2023/03/04 12:43:53;;;;;;;;;;;;;;;;;;5053675;28;19948;-87
2023/03/04 12:46:37;;;;;;;;;;;;;;;;;;5036206;28;20295;-88
2023/03/04 12:49:02;;;;;;;;;;;;;;;;;;5054631;28;20380;-88
2023/03/04 12:51:31;;;;;;;;;;;;;;;;;;5053668;28;19917;-86
2023/03/04 12:54:15;;;;;;;;;;;;;;;;;;5053572;28;19917;-85
2023/03/04 12:56:43;;;;;;;;;;;;;;;;;;5035533;28;20007;-88
2023/03/04 12:59:17;;;;;;;;;;;;;;;;;;5053499;28;19924;-86
2023/03/04 13:01:51;;;;;;;;;;;;;;;;;;5053440;28;19924;-87
2023/03/04 13:04:17;;;;;;;;;;;;;;;;;;5053455;28;19920;-86
2023/03/04 13:07:06;;;;;;;;;;;;;;;;;;5035155;28;19928;-87
2023/03/04 13:09:41;;;;;;;;;;;;;;;;;;5042412;28;20376;-87
2023/03/04 13:12:17;;;;;;;;;;;;;;;;;;5053332;28;19924;-87
2023/03/04 13:15:01;;;;;;;;;;;;;;;;;;5053195;28;19955;-87
2023/03/04 13:17:36;;;;;;;;;;;;;;;;;;5035254;28;19929;-87
2023/03/04 13:20:17;;;;;;;;;;;;;;;;;;5053295;28;19917;-85
2023/03/04 13:22:59;;;;;;;;;;;;;;;;;;5053298;28;19952;-86
2023/03/04 13:25:27;;;;;;;;;;;;;;;;;;5053086;28;20369;-87
2023/03/04 13:27:58;;;;;;;;;;;;;;;;;;5053177;28;19996;-87
2023/03/04 13:30:30;;;;;;;;;;;;;;;;;;5053157;28;19917;-87
2023/03/04 13:32:56;;;;;;;;;;;;;;;;;;5053008;28;19924;-87
2023/03/04 13:35:40;;;;;;;;;;;;;;;;;;5053081;28;19917;-87
2023/03/04 13:38:20;;;;;;;;;;;;;;;;;;5052964;28;19928;-88
2023/03/04 13:41:05;;;;;;;;;;;;;;;;;;5035348;28;19920;-87
2023/03/04 13:43:41;;;;;;;;;;;;;;;;;;5056878;28;19925;-85
2023/03/04 13:46:19;;;;;;;;;;;;;;;;;;5038967;28;19917;-87
2023/03/04 13:48:50;;;;;;;;;;;;;;;;;;5057071;28;19920;-87
2023/03/04 13:51:17;;;;;;;;;;;;;;;;;;5056912;28;19917;-86
2023/03/04 13:53:44;;;;;;;;;;;;;;;;;;5057003;28;20015;-87
2023/03/04 13:56:20;;;;;;;;;;;;;;;;;;5056768;28;19925;-88
2023/03/04 13:58:47;;;;;;;;;;;;;;;;;;5039035;28;19917;-87
2023/03/04 14:01:27;;;;;;;;;;;;;;;;;;5056861;28;19970;-86
2023/03/04 14:03:53;;;;;;;;;;;;;;;;;;5056865;28;19925;-86
2023/03/04 14:06:40;;;;;;;;;;;;;;;;;;5056542;28;19924;-86
2023/03/04 14:09:12;;;;;;;;;;;;;;;;;;5056820;28;20463;-86
2023/03/04 14:11:42;;;;;;;;;;;;;;;;;;5038951;28;19963;-87
2023/03/04 14:14:11;;;;;;;;;;;;;;;;;;5056776;28;20439;-85
2023/03/04 14:16:38;;;;;;;;;;;;;;;;;;5056420;28;19916;-87
2023/03/04 14:19:05;;;;;;;;;;;;;;;;;;5038569;28;20269;-86
2023/03/04 14:21:32;;;;;;;;;;;;;;;;;;5056388;28;19913;-86
2023/03/04 14:24:02;;;;;;;;;;;;;;;;;;5038281;28;19975;-86
2023/03/04 14:26:29;;;;;;;;;;;;;;;;;;5056269;28;19927;-86
2023/03/04 14:28:58;;;;;;;;;;;;;;;;;;5056302;28;19924;-88
2023/03/04 14:31:24;;;;;;;;;;;;;;;;;;5038412;28;20357;-86
2023/03/04 14:33:51;;;;;;;;;;;;;;;;;;5056332;28;20011;-87
2023/03/04 14:36:20;;;;;;;;;;;;;;;;;;5056172;28;19952;-87
2023/03/04 14:38:51;;;;;;;;;;;;;;;;;;5056086;28;19924;-87
2023/03/04 14:41:31;;;;;;;;;;;;;;;;;;5038150;28;19987;-86
2023/03/04 14:44:15;;;;;;;;;;;;;;;;;;5038046;28;20232;-86
2023/03/04 14:46:46;;;;;;;;;;;;;;;;;;5037847;28;19920;-86
2023/03/04 14:49:12;;;;;;;;;;;;;;;;;;5056042;28;19917;-87
2023/03/04 14:51:44;;;;;;;;;;;;;;;;;;5055907;28;20003;-85
2023/03/04 14:54:26;;;;;;;;;;;;;;;;;;5055894;28;19924;-87
2023/03/04 14:56:52;;;;;;;;;;;;;;;;;;5056363;28;19975;-86
2023/03/04 14:59:26;;;;;;;;;;;;;;;;;;5056292;28;20011;-87
2023/03/04 15:01:52;;;;;;;;;;;;;;;;;;5038299;28;19924;-89
2023/03/04 15:04:18;;;;;;;;;;;;;;;;;;5056025;28;19927;-88
2023/03/04 15:06:51;;;;;;;;;;;;;;;;;;5061690;28;19970;-86
2023/03/04 15:09:24;;;;;;;;;;;;;;;;;;5080257;28;19924;-85
2023/03/04 15:11:51;;;;;;;;;;;;;;;;;;5074675;28;19917;-85
2023/03/04 15:14:35;;;;;;;;;;;;;;;;;;5055704;28;20032;-86
2023/03/04 15:17:00;;;;;;;;;;;;;;;;;;5055595;28;20018;-87
2023/03/04 15:19:27;;;;;;;;;;;;;;;;;;5055322;28;19963;-86
2023/03/04 15:22:02;;;;;;;;;;;;;;;;;;5037376;28;19940;-87
2023/03/04 15:24:27;;;;;;;;;;;;;;;;;;5055208;28;19932;-87
2023/03/04 15:26:53;;;;;;;;;;;;;;;;;;5055106;28;20252;-86
2023/03/04 15:29:19;;;;;;;;;;;;;;;;;;5039033;28;19921;-87
2023/03/04 15:31:47;;;;;;;;;;;;;;;;;;5035789;28;20317;-87
2023/03/04 15:34:13;;;;;;;;;;;;;;;;;;5037501;28;20015;-87
2023/03/04 15:36:39;;;;;;;;;;;;;;;;;;5055478;28;20020;-87
2023/03/04 15:39:04;;;;;;;;;;;;;;;;;;5037149;28;20383;-89
2023/03/04 15:41:30;;;;;;;;;;;;;;;;;;5054643;28;19916;-87
2023/03/04 15:43:56;;;;;;;;;;;;;;;;;;5055079;28;19944;-86
2023/03/04 15:46:21;;;;;;;;;;;;;;;;;;5036921;28;19917;-88
2023/03/04 15:48:47;;;;;;;;;;;;;;;;;;5055049;28;20367;-88
2023/03/04 15:51:13;;;;;;;;;;;;;;;;;;5055286;28;19917;-88
2023/03/04 15:53:41;;;;;;;;;;;;;;;;;;5054769;28;19967;-87
2023/03/04 15:56:20;;;;;;;;;;;;;;;;;;5054832;28;19924;-88
2023/03/04 15:58:56;;;;;;;;;;;;;;;;;;5054983;28;20281;-87
2023/03/04 16:01:21;;;;;;;;;;;;;;;;;;5054844;28;20364;-87
2023/03/04 16:03:47;;;;;;;;;;;;;;;;;;5054171;28;20023;-87
2023/03/04 16:06:13;;;;;;;;;;;;;;;;;;5054580;28;19943;-88
2023/03/04 16:08:39;;;;;;;;;;;;;;;;;;5054628;28;20478;-88
2023/03/04 16:11:05;;;;;;;;;;;;;;;;;;5054691;28;19921;-88
2023/03/04 16:13:30;;;;;;;;;;;;;;;;;;5036612;28;19974;-87
2023/03/04 16:15:56;;;;;;;;;;;;;;;;;;5054544;28;19920;-88
2023/03/04 16:18:22;;;;;;;;;;;;;;;;;;5054316;28;20001;-88
2023/03/04 16:20:48;;;;;;;;;;;;;;;;;;5054394;28;19924;-86
2023/03/04 16:23:15;;;;;;;;;;;;;;;;;;5054451;28;19917;-86
2023/03/04 16:25:45;;;;;;;;;;;;;;;;;;5036213;28;19943;-87
2023/03/04 16:28:10;;;;;;;;;;;;;;;;;;5056895;28;19916;-86
2023/03/04 16:30:36;;;;;;;;;;;;;;;;;;5054103;28;19916;-86
2023/03/04 16:33:01;;;;;;;;;;;;;;;;;;5054120;28;19927;-85
2023/03/04 16:35:28;;;;;;;;;;;;;;;;;;5053913;28;19921;-86
2023/03/04 16:37:54;;;;;;;;;;;;;;;;;;5053895;28;20004;-86
2023/03/04 16:40:26;;;;;;;;;;;;;;;;;;5053967;28;19917;-87
2023/03/04 16:42:52;;;;;;;;;;;;;;;;;;5053936;28;20376;-86
2023/03/04 16:45:18;;;;;;;;;;;;;;;;;;5035684;28;19978;-86
2023/03/04 16:47:44;;;;;;;;;;;;;;;;;;5053639;28;19967;-87
2023/03/04 16:50:13;;;;;;;;;;;;;;;;;;5045779;28;19956;-88
2023/03/04 16:52:39;;;;;;;;;;;;;;;;;;5040188;28;19928;-87
2023/03/04 16:55:05;;;;;;;;;;;;;;;;;;5052212;28;20008;-86